Time;durP1;ratioP1;P1;durP2;ratioP2;P2;SDS_P1;SDS_P2;PMS_P1;PMS_P2;Temp;Humidity;BMP_temperature;BMP_pressure;BME280_temperature;BME280_humidity;BME280_pressure;Samples;Min_cycle;Max_cycle;Signal;HPM_P1;HPM_P2
2021/05/31 00:01:21;;;;;;;;;;;;;;;7.02;70.79;101126.94;104317;1095;77325;-60
2021/05/31 00:03:26;;;;;;;;;;;;;;;6.92;71.21;101120.78;104320;1096;77934;-60
2021/05/31 00:05:31;;;;;;;;;;;;;;;6.93;71.22;101122.45;104288;1096;76939;-59
2021/05/31 00:07:36;;;;;;;;;;;;;;;6.93;71.00;101119.77;104290;1096;77842;-60
2021/05/31 00:09:43;;;;;;;;;;;;;;;6.94;70.94;101119.63;104326;1096;78149;-60
2021/05/31 00:11:48;;;;;;;;;;;;;;;6.95;70.93;101123.17;104270;1096;78100;-59
2021/05/31 00:13:53;;;;;;;;;;;;;;;6.89;71.37;101124.61;104290;1096;78144;-60
2021/05/31 00:15:58;;;;;;;;;;;;;;;6.82;71.51;101125.32;104299;1096;77568;-63
2021/05/31 00:18:06;;;;;;;;;;;;;;;6.74;71.62;101119.84;104300;1096;76604;-63
2021/05/31 00:20:13;;;;;;;;;;;;;;;6.67;71.32;101121.44;104290;1099;77542;-63
2021/05/31 00:22:20;;;;;;;;;;;;;;;6.58;71.34;101119.62;104305;1096;77024;-63
2021/05/31 00:24:26;;;;;;;;;;;;;;;6.50;71.48;101123.89;104291;1096;76852;-63
2021/05/31 00:26:31;;;;;;;;;;;;;;;6.51;71.79;101122.88;104344;1096;77765;-63
2021/05/31 00:28:37;;;;;;;;;;;;;;;6.50;71.83;101120.36;104320;1096;77841;-63
2021/05/31 00:30:42;;;;;;;;;;;;;;;6.48;72.06;101112.43;104333;1095;77783;-63
2021/05/31 00:32:51;;;;;;;;;;;;;;;6.46;71.95;101118.94;104305;1096;78608;-63
2021/05/31 00:34:56;;;;;;;;;;;;;;;6.46;72.23;101113.57;104306;1096;76717;-63
2021/05/31 00:37:01;;;;;;;;;;;;;;;6.45;72.05;101115.44;104311;1096;76818;-63
2021/05/31 00:39:09;;;;;;;;;;;;;;;6.43;72.23;101109.34;104309;1096;77446;-63
2021/05/31 00:41:14;;;;;;;;;;;;;;;6.43;72.21;101109.34;104289;1096;77763;-60
2021/05/31 00:43:20;;;;;;;;;;;;;;;6.37;72.36;101104.55;104290;1096;76691;-60
2021/05/31 00:45:25;;;;;;;;;;;;;;;6.29;72.62;101106.30;104298;1096;78268;-60
2021/05/31 00:47:33;;;;;;;;;;;;;;;6.28;72.49;101102.76;104312;1095;78515;-58
2021/05/31 00:49:38;;;;;;;;;;;;;;;6.26;72.51;101102.03;104290;1096;76850;-61
2021/05/31 00:51:44;;;;;;;;;;;;;;;6.24;72.47;101092.44;104285;1096;77299;-63
2021/05/31 00:53:49;;;;;;;;;;;;;;;6.19;72.32;101094.72;104288;1096;78211;-62
2021/05/31 00:55:54;;;;;;;;;;;;;;;6.15;72.56;101094.18;104263;1095;76819;-62
2021/05/31 00:58:00;;;;;;;;;;;;;;;6.14;72.68;101095.16;104304;1096;78309;-62
2021/05/31 01:00:10;;;;;;;;;;;;;;;6.13;72.64;101095.28;104288;1096;78332;-59
2021/05/31 01:02:15;;;;;;;;;;;;;;;6.12;72.74;101099.83;104293;1096;77992;-59
2021/05/31 01:04:24;;;;;;;;;;;;;;;6.11;73.06;101100.80;104298;1096;76702;-59
2021/05/31 01:06:32;;;;;;;;;;;;;;;6.07;72.90;101094.02;104311;1096;76667;-59
2021/05/31 01:08:46;;;;;;;;;;;;;;;6.01;72.91;101091.09;104353;1096;78505;-59
2021/05/31 01:10:59;;;;;;;;;;;;;;;5.95;73.10;101092.50;104309;1095;77342;-62
2021/05/31 01:13:12;;;;;;;;;;;;;;;5.90;73.18;101087.58;104317;1096;76688;-62
2021/05/31 01:15:19;;;;;;;;;;;;;;;5.92;72.81;101092.78;104315;1096;78254;-62
2021/05/31 01:17:29;;;;;;;;;;;;;;;5.91;73.24;101091.93;104284;1096;78166;-62
2021/05/31 01:20:05;;;;;;;;;;;;;;;5.87;73.19;101090.55;104319;1096;78324;-63
2021/05/31 01:22:11;;;;;;;;;;;;;;;5.80;73.22;101093.88;104335;1096;77676;-62
2021/05/31 01:24:36;;;;;;;;;;;;;;;5.78;73.44;101091.34;104312;1096;77063;-62
2021/05/31 01:26:48;;;;;;;;;;;;;;;5.79;73.56;101089.52;104277;1096;77120;-62
2021/05/31 01:29:01;;;;;;;;;;;;;;;5.79;73.49;101093.05;104333;1096;77392;-62
2021/05/31 01:31:09;;;;;;;;;;;;;;;5.77;73.45;101094.16;104329;1096;77378;-62
2021/05/31 01:33:17;;;;;;;;;;;;;;;5.73;73.61;101085.57;104319;1096;77359;-63
2021/05/31 01:35:25;;;;;;;;;;;;;;;5.72;73.54;101093.73;104338;1096;77541;-59
2021/05/31 01:37:31;;;;;;;;;;;;;;;5.67;73.73;101091.48;104287;1096;77895;-58
2021/05/31 01:39:38;;;;;;;;;;;;;;;5.65;73.63;101095.30;104325;1096;77484;-63
2021/05/31 01:41:45;;;;;;;;;;;;;;;5.62;73.65;101098.26;104330;1096;76950;-63
2021/05/31 01:43:54;;;;;;;;;;;;;;;5.60;73.76;101097.56;104343;1096;78452;-63
2021/05/31 01:46:00;;;;;;;;;;;;;;;5.58;73.92;101099.52;104326;1096;77922;-63
2021/05/31 01:48:09;;;;;;;;;;;;;;;5.55;73.85;101091.78;104324;1096;77738;-63
2021/05/31 01:50:16;;;;;;;;;;;;;;;5.56;74.03;101085.41;104290;1096;76761;-60
2021/05/31 01:52:23;;;;;;;;;;;;;;;5.57;74.11;101097.84;104353;1096;77277;-60
2021/05/31 01:54:29;;;;;;;;;;;;;;;5.52;74.20;101097.41;104330;1096;77210;-60
2021/05/31 01:56:35;;;;;;;;;;;;;;;5.53;74.16;101094.58;104322;1096;77528;-60
2021/05/31 01:58:41;;;;;;;;;;;;;;;5.52;74.30;101092.88;104321;1096;77744;-60
2021/05/31 02:00:47;;;;;;;;;;;;;;;5.50;74.21;101094.00;104292;1096;76598;-63
2021/05/31 02:02:52;;;;;;;;;;;;;;;5.45;74.14;101098.94;104324;1096;77247;-63
2021/05/31 02:04:57;;;;;;;;;;;;;;;5.41;74.35;101097.55;104313;1096;78350;-60
2021/05/31 02:07:03;;;;;;;;;;;;;;;5.33;74.39;101099.06;104316;1096;78040;-60
2021/05/31 02:09:12;;;;;;;;;;;;;;;5.31;74.32;101100.19;104329;1096;76783;-61
2021/05/31 02:11:22;;;;;;;;;;;;;;;5.28;74.36;101093.28;104296;1095;78173;-60
2021/05/31 02:13:30;;;;;;;;;;;;;;;5.26;74.39;101094.41;104316;1096;76781;-60
2021/05/31 02:15:43;;;;;;;;;;;;;;;5.25;74.35;101103.42;104324;1096;77996;-58
2021/05/31 02:18:05;;;;;;;;;;;;;;;5.20;74.40;101101.16;104338;1096;77611;-58
2021/05/31 02:20:13;;;;;;;;;;;;;;;5.18;74.48;101103.14;104316;1096;77046;-62
2021/05/31 02:22:19;;;;;;;;;;;;;;;5.15;74.36;101103.41;104310;1096;77375;-62
2021/05/31 02:24:27;;;;;;;;;;;;;;;5.12;74.50;101108.19;104323;1096;78174;-62
2021/05/31 02:26:33;;;;;;;;;;;;;;;5.13;74.56;101115.25;104313;1096;77132;-62
2021/05/31 02:28:38;;;;;;;;;;;;;;;5.13;74.70;101109.89;104286;1096;76962;-62
2021/05/31 02:30:46;;;;;;;;;;;;;;;5.14;74.80;101114.25;104315;1096;77552;-62
2021/05/31 02:32:56;;;;;;;;;;;;;;;5.12;74.83;101114.39;104284;1096;77410;-62
2021/05/31 02:35:01;;;;;;;;;;;;;;;5.11;74.93;101114.55;104331;1096;76841;-62
2021/05/31 02:37:09;;;;;;;;;;;;;;;5.08;74.85;101110.28;104301;1096;76858;-62
2021/05/31 02:39:14;;;;;;;;;;;;;;;5.07;74.99;101115.79;104334;1096;77643;-59
2021/05/31 02:41:20;;;;;;;;;;;;;;;5.10;75.09;101116.38;104306;1096;77625;-58
2021/05/31 02:43:25;;;;;;;;;;;;;;;5.14;75.15;101112.42;104308;1096;76998;-59
2021/05/31 02:45:31;;;;;;;;;;;;;;;5.18;75.16;101113.86;104306;1096;77803;-62
2021/05/31 02:47:39;;;;;;;;;;;;;;;5.23;75.35;101113.44;104315;1096;77869;-62
2021/05/31 02:49:44;;;;;;;;;;;;;;;5.29;75.36;101119.09;104303;1096;76802;-59
2021/05/31 02:51:49;;;;;;;;;;;;;;;5.38;75.50;101118.25;104333;1096;77766;-58
2021/05/31 02:53:55;;;;;;;;;;;;;;;5.47;75.42;101113.04;104312;1096;77956;-59
2021/05/31 02:56:01;;;;;;;;;;;;;;;5.53;75.44;101116.02;104291;1096;77118;-59
2021/05/31 02:58:06;;;;;;;;;;;;;;;5.58;75.57;101121.80;104302;1095;77918;-58
2021/05/31 03:00:14;;;;;;;;;;;;;;;5.68;75.75;101121.83;104320;1096;77057;-59
2021/05/31 03:02:19;;;;;;;;;;;;;;;5.79;75.76;101116.33;104315;1096;77933;-59
2021/05/31 03:04:24;;;;;;;;;;;;;;;5.87;75.76;101111.98;104327;1096;77173;-62
2021/05/31 03:06:30;;;;;;;;;;;;;;;5.96;75.81;101120.98;104326;1096;78299;-62
2021/05/31 03:08:35;;;;;;;;;;;;;;;6.04;75.77;101109.58;104309;1095;78047;-62
2021/05/31 03:10:40;;;;;;;;;;;;;;;6.11;75.96;101103.48;104290;1096;78063;-59
2021/05/31 03:12:49;;;;;;;;;;;;;;;6.20;75.86;101104.47;104308;1096;78069;-59
2021/05/31 03:14:54;;;;;;;;;;;;;;;6.18;75.72;101096.55;104308;1096;76803;-59
2021/05/31 03:17:03;;;;;;;;;;;;;;;6.18;75.95;101101.09;104340;1096;79382;-59
2021/05/31 03:19:11;;;;;;;;;;;;;;;6.14;75.90;101102.35;104344;1096;76823;-59
2021/05/31 03:21:17;;;;;;;;;;;;;;;6.17;75.86;101102.92;104334;1096;77208;-62
2021/05/31 03:23:22;;;;;;;;;;;;;;;6.23;75.93;101096.98;104251;1095;78361;-62
2021/05/31 03:25:27;;;;;;;;;;;;;;;6.27;75.81;101101.05;104270;1096;78641;-62
2021/05/31 03:27:32;;;;;;;;;;;;;;;6.35;75.72;101103.00;104324;1097;77600;-62
2021/05/31 03:29:40;;;;;;;;;;;;;;;6.42;75.74;101102.30;104310;1095;76730;-63
2021/05/31 03:31:45;;;;;;;;;;;;;;;6.64;75.87;101101.10;104330;1097;76769;-63
2021/05/31 03:33:50;;;;;;;;;;;;;;;7.16;75.60;101106.79;104317;1097;77805;-63
2021/05/31 03:35:55;;;;;;;;;;;;;;;7.33;75.16;101108.67;104313;1096;77103;-60
2021/05/31 03:38:00;;;;;;;;;;;;;;;7.54;74.71;101107.39;104307;1097;78087;-60
2021/05/31 03:40:08;;;;;;;;;;;;;;;7.74;74.51;101108.09;104306;1097;77203;-60
2021/05/31 03:42:16;;;;;;;;;;;;;;;8.36;74.68;101109.80;104359;1097;77331;-60
2021/05/31 03:44:24;;;;;;;;;;;;;;;9.42;74.20;101106.63;104361;1095;77097;-60
2021/05/31 03:46:29;;;;;;;;;;;;;;;10.64;73.11;101098.39;104351;1097;77921;-60
2021/05/31 03:48:34;;;;;;;;;;;;;;;10.48;71.74;101102.98;104325;1097;76935;-58
2021/05/31 03:50:40;;;;;;;;;;;;;;;10.48;71.78;101103.84;104345;1097;78138;-62
2021/05/31 03:52:46;;;;;;;;;;;;;;;10.98;70.70;101099.98;104309;1097;78313;-63
2021/05/31 03:54:54;;;;;;;;;;;;;;;10.75;70.36;101102.58;104354;1097;77199;-59
2021/05/31 03:56:59;;;;;;;;;;;;;;;10.69;70.22;101108.67;104326;1096;76816;-59
2021/05/31 03:59:04;;;;;;;;;;;;;;;12.05;70.83;101100.05;104267;1096;77157;-59
2021/05/31 04:01:10;;;;;;;;;;;;;;;13.63;68.79;101097.75;104303;1097;76791;-59
2021/05/31 04:03:15;;;;;;;;;;;;;;;14.83;66.50;101094.03;104338;1097;77437;-59
2021/05/31 04:05:20;;;;;;;;;;;;;;;15.82;63.34;101094.25;104354;1097;78648;-59
2021/05/31 04:12:13;;;;;;;;;;;;;;;18.05;57.01;101088.28;104306;1097;78064;-63
2021/05/31 04:14:19;;;;;;;;;;;;;;;18.52;55.50;101083.30;104342;1097;76809;-59
2021/05/31 04:16:25;;;;;;;;;;;;;;;18.66;53.40;101084.85;104299;1097;76735;-58
2021/05/31 04:18:31;;;;;;;;;;;;;;;17.68;52.43;101092.74;104282;1097;77773;-58
2021/05/31 04:20:37;;;;;;;;;;;;;;;16.83;53.97;101095.77;104332;1097;76649;-58
2021/05/31 04:22:42;;;;;;;;;;;;;;;16.67;53.21;101088.03;104352;1097;77895;-59
2021/05/31 04:24:48;;;;;;;;;;;;;;;15.91;53.23;101094.89;104300;1097;77834;-63
2021/05/31 04:26:53;;;;;;;;;;;;;;;14.92;54.09;101085.48;104330;1097;77922;-63
2021/05/31 04:28:58;;;;;;;;;;;;;;;14.11;54.86;101094.28;104303;1097;78091;-63
2021/05/31 04:31:03;;;;;;;;;;;;;;;13.55;55.67;101099.56;104345;1097;78071;-59
2021/05/31 04:33:08;;;;;;;;;;;;;;;14.19;57.31;101094.14;104350;1097;78358;-59
2021/05/31 04:35:17;;;;;;;;;;;;;;;15.77;55.65;101091.30;104315;1096;76846;-63
2021/05/31 04:37:22;;;;;;;;;;;;;;;16.26;54.23;101090.13;104342;1097;78424;-63
2021/05/31 04:39:27;;;;;;;;;;;;;;;15.51;53.56;101093.13;104345;1097;77350;-59
2021/05/31 04:41:36;;;;;;;;;;;;;;;14.43;54.19;101095.62;104358;1095;78280;-59
2021/05/31 04:43:41;;;;;;;;;;;;;;;13.78;54.91;101096.69;104341;1097;77477;-59
2021/05/31 04:45:46;;;;;;;;;;;;;;;13.21;55.49;101099.34;104370;1097;78240;-64
2021/05/31 04:47:53;;;;;;;;;;;;;;;13.00;56.31;101091.10;104335;1096;77041;-64
2021/05/31 04:49:58;;;;;;;;;;;;;;;13.93;57.64;101102.03;104319;1097;78232;-64
2021/05/31 04:52:04;;;;;;;;;;;;;;;15.95;56.36;101090.72;104334;1097;76675;-64
2021/05/31 04:54:12;;;;;;;;;;;;;;;18.01;53.80;101080.75;104365;1097;78050;-64
2021/05/31 04:56:18;;;;;;;;;;;;;;;19.43;51.05;101081.48;104321;1097;76864;-64
2021/05/31 04:58:24;;;;;;;;;;;;;;;20.60;48.22;101078.84;104310;1097;76866;-66
2021/05/31 05:00:30;;;;;;;;;;;;;;;21.61;47.52;101074.75;104348;1097;77040;-60
2021/05/31 05:02:35;;;;;;;;;;;;;;;20.84;45.92;101082.43;104326;1097;77610;-59
2021/05/31 05:04:42;;;;;;;;;;;;;;;19.28;46.16;101081.83;104318;1097;78129;-62
2021/05/31 05:06:47;;;;;;;;;;;;;;;17.96;47.05;101083.31;104352;1097;77117;-62
2021/05/31 05:08:53;;;;;;;;;;;;;;;17.08;48.16;101094.00;104356;1097;77520;-62
2021/05/31 05:10:59;;;;;;;;;;;;;;;16.46;49.44;101096.39;104307;1097;77305;-59
2021/05/31 05:13:04;;;;;;;;;;;;;;;16.13;49.73;101090.09;104342;1097;78232;-57
2021/05/31 05:15:10;;;;;;;;;;;;;;;17.22;50.87;101093.98;104338;1097;77408;-64
2021/05/31 05:17:15;;;;;;;;;;;;;;;19.08;48.31;101083.99;104372;1097;78266;-60
2021/05/31 05:19:24;;;;;;;;;;;;;;;20.62;46.26;101088.75;104362;1095;77599;-59
2021/05/31 05:21:30;;;;;;;;;;;;;;;22.13;44.18;101083.72;104321;1100;76631;-59
2021/05/31 05:23:36;;;;;;;;;;;;;;;23.49;43.47;101078.36;104366;1097;77104;-59
2021/05/31 05:25:41;;;;;;;;;;;;;;;24.47;40.43;101081.86;104336;1097;77254;-66
2021/05/31 05:27:49;;;;;;;;;;;;;;;25.08;39.08;101075.64;104350;1096;77656;-62
2021/05/31 05:29:54;;;;;;;;;;;;;;;23.87;38.63;101091.20;104384;1097;77113;-66
2021/05/31 05:32:00;;;;;;;;;;;;;;;21.70;39.01;101090.59;104319;1097;78395;-60
2021/05/31 05:34:08;;;;;;;;;;;;;;;20.14;40.50;101095.21;104328;1097;77293;-59
2021/05/31 05:36:21;;;;;;;;;;;;;;;19.28;42.19;101095.53;104314;1097;78156;-60
2021/05/31 05:38:45;;;;;;;;;;;;;;;18.88;42.55;101088.00;104311;1097;77136;-60
2021/05/31 05:41:03;;;;;;;;;;;;;;;18.20;43.94;101094.28;104326;1097;76866;-60
2021/05/31 05:43:20;;;;;;;;;;;;;;;18.80;45.75;101091.88;104334;1095;77856;-60
2021/05/31 05:45:45;;;;;;;;;;;;;;;21.23;43.39;101091.00;104351;1095;76793;-60
2021/05/31 05:47:50;;;;;;;;;;;;;;;23.10;40.56;101078.66;104333;1097;76769;-60
2021/05/31 05:49:55;;;;;;;;;;;;;;;24.49;37.49;101076.89;104299;1097;77695;-59
2021/05/31 05:52:01;;;;;;;;;;;;;;;25.26;37.18;101082.66;104319;1097;76811;-59
2021/05/31 05:54:07;;;;;;;;;;;;;;;26.05;35.50;101090.67;104330;1095;78209;-58
2021/05/31 05:56:13;;;;;;;;;;;;;;;25.94;33.90;101078.75;104339;1097;76605;-58
2021/05/31 05:58:18;;;;;;;;;;;;;;;25.38;33.31;101080.48;104337;1097;78134;-59
2021/05/31 06:00:28;;;;;;;;;;;;;;;25.65;33.65;101083.13;104328;1095;77456;-58
2021/05/31 06:02:33;;;;;;;;;;;;;;;25.84;32.83;101080.67;104360;1097;77520;-58
2021/05/31 06:04:39;;;;;;;;;;;;;;;26.55;32.40;101084.35;104338;1097;77765;-58
2021/05/31 06:06:46;;;;;;;;;;;;;;;26.96;31.95;101069.34;104308;1097;77980;-58
2021/05/31 06:08:51;;;;;;;;;;;;;;;27.26;31.27;101072.02;104322;1097;77451;-58
2021/05/31 06:10:56;;;;;;;;;;;;;;;27.16;31.46;101072.06;104318;1097;77743;-58
2021/05/31 06:13:02;;;;;;;;;;;;;;;26.15;31.24;101074.92;104317;1097;76817;-59
2021/05/31 06:15:11;;;;;;;;;;;;;;;25.04;31.74;101073.70;104325;1097;78297;-61
2021/05/31 06:17:16;;;;;;;;;;;;;;;24.40;32.74;101076.55;104351;1097;77778;-61
2021/05/31 06:19:24;;;;;;;;;;;;;;;24.84;32.70;101076.33;104357;1095;77727;-59
2021/05/31 06:21:29;;;;;;;;;;;;;;;25.81;31.30;101076.52;104324;1097;76773;-59
2021/05/31 06:23:37;;;;;;;;;;;;;;;26.89;30.73;101074.37;104332;1097;77334;-59
2021/05/31 06:25:42;;;;;;;;;;;;;;;27.35;30.22;101073.10;104341;1097;77492;-60
2021/05/31 06:27:47;;;;;;;;;;;;;;;27.80;29.43;101074.02;104352;1095;77862;-59
2021/05/31 06:29:53;;;;;;;;;;;;;;;28.23;28.65;101072.34;104349;1097;78389;-59
2021/05/31 06:31:58;;;;;;;;;;;;;;;28.53;27.83;101070.14;104332;1097;78277;-59
2021/05/31 06:34:03;;;;;;;;;;;;;;;28.23;26.14;101070.40;104348;1097;78674;-59
2021/05/31 06:36:10;;;;;;;;;;;;;;;27.53;26.28;101077.20;104339;1097;77254;-60
2021/05/31 06:38:16;;;;;;;;;;;;;;;27.12;27.57;101081.22;104342;1097;77797;-59
2021/05/31 06:40:21;;;;;;;;;;;;;;;27.59;27.18;101075.23;104307;1097;76959;-59
2021/05/31 06:42:26;;;;;;;;;;;;;;;28.00;27.23;101074.70;104315;1097;78124;-59
2021/05/31 06:44:31;;;;;;;;;;;;;;;28.35;26.53;101072.81;104370;1097;77201;-61
2021/05/31 06:46:36;;;;;;;;;;;;;;;28.85;26.05;101077.08;104365;1097;77730;-62
2021/05/31 06:48:44;;;;;;;;;;;;;;;29.35;25.07;101072.91;104333;1095;77426;-62
2021/05/31 06:50:50;;;;;;;;;;;;;;;29.53;24.93;101070.16;104290;1097;76922;-60
2021/05/31 06:52:59;;;;;;;;;;;;;;;29.48;24.27;101061.05;104330;1097;77453;-60
2021/05/31 06:55:09;;;;;;;;;;;;;;;29.95;24.54;101076.84;104321;1097;77233;-62
2021/05/31 06:57:16;;;;;;;;;;;;;;;31.09;23.79;101064.02;104355;1095;77214;-62
2021/05/31 06:59:21;;;;;;;;;;;;;;;30.77;22.35;101067.66;104344;1097;78340;-62
2021/05/31 07:01:26;;;;;;;;;;;;;;;31.09;22.71;101069.61;104345;1097;77755;-62
2021/05/31 07:03:32;;;;;;;;;;;;;;;31.04;20.99;101057.72;104304;1097;77379;-63
2021/05/31 07:05:37;;;;;;;;;;;;;;;31.53;22.40;101058.62;104352;1097;77235;-63
2021/05/31 07:07:43;;;;;;;;;;;;;;;31.85;21.33;101063.22;104316;1097;78277;-63
2021/05/31 07:09:51;;;;;;;;;;;;;;;31.50;21.06;101059.27;104319;1097;76782;-62
2021/05/31 07:11:56;;;;;;;;;;;;;;;31.65;21.33;101060.05;104325;1097;77574;-63
2021/05/31 07:14:03;;;;;;;;;;;;;;;31.69;21.23;101058.30;104333;1097;78469;-56
2021/05/31 07:16:16;;;;;;;;;;;;;;;31.94;20.87;101057.70;104324;1097;76579;-56
2021/05/31 07:18:24;;;;;;;;;;;;;;;32.21;20.85;101048.41;104328;1096;77714;-65
2021/05/31 07:20:29;;;;;;;;;;;;;;;31.60;20.22;101043.41;104331;1097;77190;-62
2021/05/31 07:22:35;;;;;;;;;;;;;;;31.27;20.35;101045.48;104310;1097;78249;-61
2021/05/31 07:24:40;;;;;;;;;;;;;;;30.85;19.96;101053.00;104332;1097;77755;-59
2021/05/31 07:26:45;;;;;;;;;;;;;;;30.67;20.96;101050.28;104333;1097;76622;-59
2021/05/31 07:28:50;;;;;;;;;;;;;;;30.76;20.71;101048.45;104311;1097;77550;-58
2021/05/31 07:30:55;;;;;;;;;;;;;;;30.25;19.90;101042.91;104355;1097;77957;-61
2021/05/31 07:33:00;;;;;;;;;;;;;;;30.58;20.57;101046.55;104324;1097;76980;-61
2021/05/31 07:35:08;;;;;;;;;;;;;;;31.32;20.37;101045.38;104334;1097;76743;-62
2021/05/31 07:37:13;;;;;;;;;;;;;;;31.65;19.72;101049.70;104356;1097;77487;-65
2021/05/31 07:39:18;;;;;;;;;;;;;;;31.22;18.86;101040.02;104327;1097;77319;-64
2021/05/31 07:41:24;;;;;;;;;;;;;;;28.97;20.77;101041.34;104290;1097;77323;-63
2021/05/31 07:43:29;;;;;;;;;;;;;;;29.06;21.38;101042.36;104289;1100;77441;-62
2021/05/31 07:45:37;;;;;;;;;;;;;;;29.74;21.22;101042.86;104316;1097;77320;-64
2021/05/31 07:47:42;;;;;;;;;;;;;;;30.34;21.77;101032.72;104275;1100;77704;-64
2021/05/31 07:49:47;;;;;;;;;;;;;;;30.30;20.58;101031.66;104300;1097;77054;-63
2021/05/31 07:51:54;;;;;;;;;;;;;;;29.66;20.23;101036.02;104336;1097;77746;-64
2021/05/31 07:54:02;;;;;;;;;;;;;;;29.49;21.20;101030.13;104333;1097;77723;-62
2021/05/31 07:56:07;;;;;;;;;;;;;;;30.28;21.16;101036.73;104312;1096;78434;-63
2021/05/31 07:58:13;;;;;;;;;;;;;;;30.75;19.11;101033.67;104335;1094;78504;-63
2021/05/31 08:00:21;;;;;;;;;;;;;;;29.74;18.83;101031.72;104316;1097;76634;-63
2021/05/31 08:02:27;;;;;;;;;;;;;;;27.71;19.60;101045.19;104355;1095;77279;-62
2021/05/31 08:04:32;;;;;;;;;;;;;;;26.23;20.83;101041.13;104337;1097;76913;-58
2021/05/31 08:06:40;;;;;;;;;;;;;;;26.43;22.04;101045.00;104324;1097;77430;-60
2021/05/31 08:08:45;;;;;;;;;;;;;;;26.89;22.07;101036.35;104332;1095;77189;-60
2021/05/31 08:10:54;;;;;;;;;;;;;;;26.23;21.64;101043.09;104291;1097;76983;-63
2021/05/31 08:12:59;;;;;;;;;;;;;;;26.32;22.24;101045.02;104345;1097;78240;-63
2021/05/31 08:15:07;;;;;;;;;;;;;;;25.36;22.05;101051.42;104325;1097;77678;-63
2021/05/31 08:17:13;;;;;;;;;;;;;;;25.06;22.07;101044.67;104364;1097;77529;-63
2021/05/31 08:19:25;;;;;;;;;;;;;;;24.51;23.28;101042.38;104329;1097;77041;-63
2021/05/31 08:21:30;;;;;;;;;;;;;;;25.26;23.39;101043.09;104341;1097;77097;-63
2021/05/31 08:23:35;;;;;;;;;;;;;;;25.04;23.21;101046.88;104321;1097;77980;-63
2021/05/31 08:25:41;;;;;;;;;;;;;;;25.35;22.92;101035.95;104329;1097;78412;-59
2021/05/31 08:27:47;;;;;;;;;;;;;;;24.65;22.43;101040.82;104388;1097;78391;-59
2021/05/31 08:29:52;;;;;;;;;;;;;;;23.94;22.37;101050.44;104316;1097;76674;-60
2021/05/31 08:31:57;;;;;;;;;;;;;;;24.41;23.41;101044.23;104306;1097;78219;-59
2021/05/31 08:34:02;;;;;;;;;;;;;;;24.04;23.98;101036.72;104331;1097;77407;-59
2021/05/31 08:36:08;;;;;;;;;;;;;;;23.15;24.34;101037.38;104336;1096;76818;-63
2021/05/31 08:38:14;;;;;;;;;;;;;;;22.64;25.84;101035.83;104316;1097;79531;-62
2021/05/31 08:40:19;;;;;;;;;;;;;;;22.66;25.66;101033.69;104384;1097;77850;-63
2021/05/31 08:42:24;;;;;;;;;;;;;;;23.72;24.63;101035.02;104303;1096;76593;-63
2021/05/31 08:44:33;;;;;;;;;;;;;;;24.65;24.25;101032.53;104341;1097;77712;-60
2021/05/31 08:46:39;;;;;;;;;;;;;;;25.01;23.72;101036.36;104313;1097;78163;-60
2021/05/31 08:48:44;;;;;;;;;;;;;;;25.28;22.98;101035.35;104330;1095;78130;-61
2021/05/31 08:50:52;;;;;;;;;;;;;;;24.59;22.76;101029.98;104292;1097;77709;-65
2021/05/31 08:52:58;;;;;;;;;;;;;;;23.94;23.57;101046.84;104340;1095;77213;-65
2021/05/31 08:55:06;;;;;;;;;;;;;;;24.51;23.85;101038.78;104344;1097;77248;-64
2021/05/31 08:57:11;;;;;;;;;;;;;;;24.91;23.67;101029.95;104372;1097;77877;-65
2021/05/31 08:59:16;;;;;;;;;;;;;;;24.23;22.90;101031.66;104325;1097;77134;-59
2021/05/31 09:01:24;;;;;;;;;;;;;;;23.36;24.02;101042.05;104334;1097;76989;-59
2021/05/31 09:03:29;;;;;;;;;;;;;;;22.65;24.25;101041.11;104309;1097;77660;-59
2021/05/31 09:05:37;;;;;;;;;;;;;;;23.08;24.77;101032.05;104367;1097;78924;-59
2021/05/31 09:07:50;;;;;;;;;;;;;;;23.71;24.24;101028.67;104352;1097;76710;-60
2021/05/31 09:09:56;;;;;;;;;;;;;;;24.55;23.69;101032.48;104366;1097;77467;-59
2021/05/31 09:12:01;;;;;;;;;;;;;;;24.40;23.75;101023.23;104355;1097;77689;-59
2021/05/31 09:14:09;;;;;;;;;;;;;;;24.40;23.63;101023.23;104316;1097;77797;-60
2021/05/31 09:16:17;;;;;;;;;;;;;;;24.32;24.40;101020.95;104346;1097;78654;-65
2021/05/31 09:18:26;;;;;;;;;;;;;;;24.40;24.62;101024.06;104344;1097;77697;-65
2021/05/31 09:20:32;;;;;;;;;;;;;;;24.56;25.13;101016.70;104317;1095;77115;-64
2021/05/31 09:22:46;;;;;;;;;;;;;;;24.49;25.41;101016.12;104360;1097;77490;-64
2021/05/31 09:24:56;;;;;;;;;;;;;;;24.00;24.82;101020.95;104340;1097;77734;-62
2021/05/31 09:27:01;;;;;;;;;;;;;;;23.37;25.07;101029.94;104354;1097;77755;-63
2021/05/31 09:29:13;;;;;;;;;;;;;;;22.85;25.67;101030.36;104332;1095;77400;-62
2021/05/31 09:31:19;;;;;;;;;;;;;;;22.07;26.23;101035.17;104317;1097;78475;-63
2021/05/31 09:33:24;;;;;;;;;;;;;;;21.67;26.51;101035.27;104298;1097;77954;-64
2021/05/31 09:35:29;;;;;;;;;;;;;;;21.08;26.10;101028.30;104338;1097;76828;-63
2021/05/31 09:37:43;;;;;;;;;;;;;;;20.89;26.05;101035.84;104305;1097;78221;-63
2021/05/31 09:39:58;;;;;;;;;;;;;;;21.28;26.54;101023.23;104345;1097;77319;-61
2021/05/31 09:42:07;;;;;;;;;;;;;;;21.22;25.80;101021.45;104309;1097;77851;-59
2021/05/31 09:44:13;;;;;;;;;;;;;;;21.44;27.24;101021.61;104327;1097;77207;-60
2021/05/31 09:46:18;;;;;;;;;;;;;;;21.41;26.44;101020.19;104323;1097;76944;-61
2021/05/31 09:48:33;;;;;;;;;;;;;;;21.12;26.39;101024.81;104355;1096;80019;-61
2021/05/31 09:50:38;;;;;;;;;;;;;;;20.80;26.16;101019.96;104307;1097;77730;-55
2021/05/31 09:52:44;;;;;;;;;;;;;;;20.75;26.25;101028.09;104357;1097;77548;-55
2021/05/31 09:54:51;;;;;;;;;;;;;;;21.01;26.36;101027.59;104334;1097;77031;-57
2021/05/31 09:57:00;;;;;;;;;;;;;;;21.22;26.14;101015.96;104326;1095;77457;-58
2021/05/31 09:59:05;;;;;;;;;;;;;;;21.46;26.93;101006.53;104373;1097;78061;-57
2021/05/31 10:01:34;;;;;;;;;;;;;;;21.96;26.87;101003.06;104346;1097;78549;-58
2021/05/31 10:03:54;;;;;;;;;;;;;;;22.36;26.96;100994.64;104335;1096;76719;-57
2021/05/31 10:06:06;;;;;;;;;;;;;;;22.17;25.61;101003.15;104350;1095;78175;-56
2021/05/31 10:08:40;;;;;;;;;;;;;;;22.16;25.58;101004.25;104328;1095;77642;-56
2021/05/31 10:10:44;;;;;;;;;;;;;;;21.96;25.10;101000.31;104323;1097;78225;-55
2021/05/31 10:12:49;;;;;;;;;;;;;;;22.11;25.48;100993.14;104342;1097;76736;-63
2021/05/31 10:14:55;;;;;;;;;;;;;;;22.11;25.40;100993.14;104347;1095;77778;-61
2021/05/31 10:17:01;;;;;;;;;;;;;;;21.79;25.47;100997.52;104307;1096;77727;-61
2021/05/31 10:19:06;;;;;;;;;;;;;;;21.49;25.87;101000.55;104327;1097;77845;-71
2021/05/31 10:21:14;;;;;;;;;;;;;;;21.44;26.83;101005.95;104300;1097;76935;-62
2021/05/31 10:23:19;;;;;;;;;;;;;;;21.26;27.23;101005.33;104291;1100;77622;-62
2021/05/31 10:25:26;;;;;;;;;;;;;;;20.96;28.04;101010.97;104309;1097;77713;-63
2021/05/31 10:27:32;;;;;;;;;;;;;;;20.63;28.28;100999.83;104319;1097;77665;-60
2021/05/31 10:29:38;;;;;;;;;;;;;;;20.41;28.80;100996.84;104331;1097;78019;-61
2021/05/31 10:31:44;;;;;;;;;;;;;;;20.21;29.38;101001.83;104329;1097;77634;-61
2021/05/31 10:33:59;;;;;;;;;;;;;;;20.00;29.63;100997.73;104326;1097;77717;-60
2021/05/31 10:36:12;;;;;;;;;;;;;;;19.98;29.36;101000.73;104347;1097;76617;-59
2021/05/31 10:38:20;;;;;;;;;;;;;;;20.15;29.50;100992.64;104356;1097;78188;-59
2021/05/31 10:40:33;;;;;;;;;;;;;;;20.07;29.27;101000.38;104330;1097;77535;-60
2021/05/31 10:42:47;;;;;;;;;;;;;;;20.04;28.99;101001.70;104316;1097;78520;-61
2021/05/31 10:44:52;;;;;;;;;;;;;;;19.87;28.89;100995.22;104367;1097;77986;-59
2021/05/31 10:47:06;;;;;;;;;;;;;;;20.09;29.16;100999.07;104324;1095;78055;-59
2021/05/31 10:49:17;;;;;;;;;;;;;;;20.53;29.27;100990.28;104328;1097;76773;-59
2021/05/31 10:51:25;;;;;;;;;;;;;;;20.94;28.56;100986.50;104279;1095;76661;-59
2021/05/31 10:53:32;;;;;;;;;;;;;;;20.76;27.59;100989.42;104320;1097;77758;-59